Time;durP1;ratioP1;P1;durP2;ratioP2;P2;SDS_P1;SDS_P2;PMS_P1;PMS_P2;Temp;Humidity;BMP_temperature;BMP_pressure;BME280_temperature;BME280_humidity;BME280_pressure;Samples;Min_cycle;Max_cycle;Signal;HPM_P1;HPM_P2
2023/06/24 00:00:59;;;;;;;5.20;4.70;;;19.40;99.90;;;;;;5036928;28;20025;-51
2023/06/24 00:03:25;;;;;;;5.28;4.45;;;19.50;99.90;;;;;;5054342;28;20381;-54
2023/06/24 00:05:50;;;;;;;6.65;4.60;;;19.50;99.90;;;;;;5054116;28;20025;-56
2023/06/24 00:08:19;;;;;;;5.22;4.55;;;19.40;99.90;;;;;;5036841;28;20114;-54
2023/06/24 00:10:46;;;;;;;6.70;4.50;;;19.40;99.90;;;;;;5054577;28;20025;-54
2023/06/24 00:13:11;;;;;;;7.53;3.85;;;19.40;99.90;;;;;;5054148;28;20489;-53
2023/06/24 00:15:40;;;;;;;4.50;4.10;;;19.40;99.90;;;;;;5054403;28;20036;-53
2023/06/24 00:18:06;;;;;;;5.75;3.95;;;19.30;99.90;;;;;;5054475;28;20231;-51
2023/06/24 00:20:32;;;;;;;4.63;4.22;;;19.30;99.90;;;;;;5054491;28;20388;-50
2023/06/24 00:22:58;;;;;;;8.20;4.55;;;19.20;99.90;;;;;;5054413;28;20537;-53
2023/06/24 00:25:23;;;;;;;7.95;6.38;;;19.20;99.90;;;;;;5053373;28;20108;-54
2023/06/24 00:27:49;;;;;;;5.38;4.88;;;19.10;99.90;;;;;;5054271;28;20025;-52
2023/06/24 00:30:14;;;;;;;5.75;5.25;;;19.10;99.90;;;;;;5054308;28;20096;-52
2023/06/24 00:32:40;;;;;;;6.53;5.88;;;19.10;99.90;;;;;;5053706;28;20033;-53
2023/06/24 00:35:06;;;;;;;8.13;5.35;;;19.00;99.90;;;;;;5053207;28;20680;-50
2023/06/24 00:37:31;;;;;;;13.05;4.97;;;18.90;99.90;;;;;;5053941;28;20044;-55
2023/06/24 00:39:57;;;;;;;6.88;5.82;;;18.90;99.90;;;;;;5053959;28;20508;-50
2023/06/24 00:42:22;;;;;;;6.25;5.60;;;18.80;99.90;;;;;;5054010;28;20032;-53
2023/06/24 00:44:49;;;;;;;10.13;5.45;;;18.80;99.90;;;;;;5052771;28;20028;-50
2023/06/24 00:47:15;;;;;;;5.70;5.18;;;18.90;99.90;;;;;;5053867;28;20017;-51
2023/06/24 00:49:45;;;;;;;6.45;5.30;;;18.90;99.90;;;;;;5053865;28;20040;-52
2023/06/24 00:52:15;;;;;;;6.32;4.85;;;18.80;99.90;;;;;;5052795;28;20029;-54
2023/06/24 00:54:44;;;;;;;11.15;4.70;;;18.80;99.90;;;;;;5052961;28;20037;-51
2023/06/24 00:57:10;;;;;;;7.47;4.80;;;18.80;99.90;;;;;;5035606;28;20090;-53
2023/06/24 00:59:37;;;;;;;7.20;4.97;;;18.80;99.90;;;;;;5053657;28;20123;-51
2023/06/24 01:02:04;;;;;;;6.43;4.65;;;18.70;99.90;;;;;;5053612;28;20497;-52
2023/06/24 01:04:30;;;;;;;6.35;5.32;;;18.70;99.90;;;;;;5052720;28;20055;-53
2023/06/24 01:06:57;;;;;;;6.93;5.20;;;18.70;99.90;;;;;;5053423;28;20489;-55
2023/06/24 01:09:23;;;;;;;5.05;4.65;;;18.70;99.90;;;;;;5053533;28;20040;-52
2023/06/24 01:11:48;;;;;;;7.63;4.97;;;18.70;99.90;;;;;;5053418;28;20021;-52
2023/06/24 01:14:14;;;;;;;6.13;4.53;;;18.70;99.90;;;;;;5052897;28;20031;-51
2023/06/24 01:17:08;;;;;;;8.52;4.90;;;18.70;99.90;;;;;;5052966;28;20027;-53
2023/06/24 01:19:58;;;;;;;9.20;5.53;;;18.70;99.90;;;;;;5053215;28;20029;-50
2023/06/24 01:22:49;;;;;;;8.35;5.55;;;18.70;99.90;;;;;;5053210;28;20029;-50
2023/06/24 01:25:41;;;;;;;7.32;6.07;;;18.70;99.90;;;;;;5052147;28;20040;-55
2023/06/24 01:28:44;;;;;;;8.95;5.40;;;18.50;99.90;;;;;;5053192;28;20033;-53
2023/06/24 01:31:30;;;;;;;7.78;6.00;;;18.40;99.90;;;;;;5052986;28;20326;-53
2023/06/24 01:34:32;;;;;;;11.30;6.80;;;18.30;99.90;;;;;;5034670;28;20024;-50
2023/06/24 01:37:07;;;;;;;7.63;6.82;;;18.30;99.90;;;;;;5053016;28;20025;-56
2023/06/24 01:39:34;;;;;;;;;;;18.20;99.90;;;;;;5053620;28;20259;-51
2023/06/24 01:42:07;;;;;;;5.85;4.88;;;18.10;99.90;;;;;;5052822;28;19967;-57
2023/06/24 01:44:33;;;;;;;6.60;5.90;;;18.10;99.90;;;;;;5051146;28;20438;-52
2023/06/24 01:47:00;;;;;;;11.13;6.30;;;18.10;99.90;;;;;;5052697;28;20027;-51
2023/06/24 01:49:29;;;;;;;7.68;6.35;;;18.10;99.90;;;;;;5052721;28;20032;-52
2023/06/24 01:51:58;;;;;;;8.77;5.88;;;18.00;99.90;;;;;;5051766;28;20025;-55
2023/06/24 01:54:25;;;;;;;6.72;6.03;;;18.00;99.90;;;;;;5086221;22;20037;-45
2023/06/24 01:56:54;;;;;;;7.60;5.95;;;18.00;99.90;;;;;;5072427;28;20044;-49
2023/06/24 01:59:21;;;;;;;6.15;4.97;;;18.00;99.90;;;;;;5072474;28;20059;-49
2023/06/24 02:01:47;;;;;;;8.90;6.13;;;18.00;99.90;;;;;;5072397;28;20072;-51
2023/06/24 02:04:14;;;;;;;6.55;5.05;;;18.00;99.90;;;;;;5071884;28;20056;-47
2023/06/24 02:06:41;;;;;;;6.78;5.60;;;18.00;99.90;;;;;;5071983;28;20028;-49
2023/06/24 02:09:07;;;;;;;6.20;5.57;;;17.90;99.90;;;;;;5072397;28;20028;-50
2023/06/24 02:11:34;;;;;;;8.30;5.88;;;18.00;99.90;;;;;;5072225;28;20395;-46
2023/06/24 02:14:03;;;;;;;6.10;5.32;;;17.90;99.90;;;;;;5071630;28;20408;-51
2023/06/24 02:16:29;;;;;;;7.82;5.97;;;17.90;99.90;;;;;;5071908;28;20039;-49
2023/06/24 02:18:55;;;;;;;7.22;5.57;;;17.90;99.90;;;;;;5072010;28;20455;-47
2023/06/24 02:21:24;;;;;;;8.35;5.68;;;17.90;99.90;;;;;;5054081;28;20464;-48
2023/06/24 02:23:51;;;;;;;11.52;5.63;;;17.90;99.90;;;;;;5071712;28;20016;-48
2023/06/24 02:26:18;;;;;;;9.25;4.93;;;17.80;99.90;;;;;;5071689;28;20020;-47
2023/06/24 02:28:46;;;;;;;9.52;5.22;;;17.70;99.90;;;;;;5071932;28;20028;-47
2023/06/24 02:31:12;;;;;;;8.40;5.95;;;17.70;99.90;;;;;;5071843;28;20032;-47
2023/06/24 02:33:38;;;;;;;6.20;5.47;;;17.70;99.90;;;;;;5071604;28;20064;-46
2023/06/24 02:36:04;;;;;;;7.82;5.70;;;17.70;99.90;;;;;;5071492;28;20056;-46
2023/06/24 02:38:30;;;;;;;10.38;5.32;;;17.70;99.90;;;;;;5071773;28;20545;-47
2023/06/24 02:40:56;;;;;;;6.63;6.00;;;17.70;99.90;;;;;;5071781;28;20480;-46
2023/06/24 02:43:22;;;;;;;5.55;5.05;;;17.60;99.90;;;;;;5071207;28;20400;-51
2023/06/24 02:45:50;;;;;;;10.35;5.40;;;17.60;99.90;;;;;;5071342;28;20032;-46
2023/06/24 02:48:17;;;;;;;7.38;5.53;;;17.60;99.90;;;;;;5053743;28;20051;-46
2023/06/24 02:50:44;;;;;;;5.78;5.15;;;17.60;99.90;;;;;;5071670;28;20078;-46
2023/06/24 02:53:14;;;;;;;6.43;5.30;;;17.60;99.90;;;;;;5051990;28;20036;-45
2023/06/24 02:55:42;;;;;;;6.43;5.68;;;17.60;99.90;;;;;;5071570;28;20037;-46
2023/06/24 02:58:08;;;;;;;9.48;5.45;;;17.50;99.90;;;;;;5071411;28;20024;-47
2023/06/24 03:00:35;;;;;;;8.02;5.70;;;17.50;99.90;;;;;;5071680;28;20029;-46
2023/06/24 03:03:03;;;;;;;9.70;5.22;;;17.50;99.90;;;;;;5071447;28;20033;-51
2023/06/24 03:05:31;;;;;;;7.15;5.65;;;17.50;99.90;;;;;;5070767;28;20496;-51
2023/06/24 03:07:57;;;;;;;6.38;5.78;;;17.40;99.90;;;;;;5071439;28;20028;-51
2023/06/24 03:10:24;;;;;;;7.00;5.68;;;17.40;99.90;;;;;;5071413;28;20086;-49
2023/06/24 03:12:49;;;;;;;6.25;5.40;;;17.40;99.90;;;;;;5071200;28;20447;-48
2023/06/24 03:15:15;;;;;;;8.32;5.82;;;17.40;99.90;;;;;;5070532;28;20056;-48
2023/06/24 03:17:41;;;;;;;9.45;6.45;;;17.40;99.90;;;;;;5053312;28;20035;-50
2023/06/24 03:20:07;;;;;;;5.97;5.32;;;17.40;99.90;;;;;;5071377;28;20059;-48
2023/06/24 03:22:33;;;;;;;7.68;6.78;;;17.30;99.90;;;;;;5071273;28;20116;-47
2023/06/24 03:24:58;;;;;;;6.35;5.53;;;17.30;99.90;;;;;;5070483;28;20100;-49
2023/06/24 03:27:24;;;;;;;6.15;5.25;;;17.30;99.90;;;;;;5071141;28;20028;-49
2023/06/24 03:29:50;;;;;;;6.38;5.78;;;17.30;99.90;;;;;;5071203;28;20496;-49
2023/06/24 03:32:15;;;;;;;7.28;5.22;;;17.30;99.90;;;;;;5071302;28;20552;-46
2023/06/24 03:34:41;;;;;;;5.93;5.32;;;17.30;99.90;;;;;;5070716;28;20456;-46
2023/06/24 03:37:06;;;;;;;6.78;6.00;;;17.30;99.90;;;;;;5071622;28;20120;-47
2023/06/24 03:39:32;;;;;;;6.68;5.75;;;17.30;99.90;;;;;;5071493;28;20392;-47
2023/06/24 03:41:58;;;;;;;5.50;5.00;;;17.30;99.90;;;;;;5071083;28;20028;-50
2023/06/24 03:44:23;;;;;;;5.47;4.97;;;17.40;99.90;;;;;;5052261;28;20433;-44
2023/06/24 03:46:49;;;;;;;8.48;6.30;;;17.50;99.90;;;;;;5053029;28;20020;-47
2023/06/24 03:49:14;;;;;;;6.28;5.68;;;17.50;99.90;;;;;;5070983;28;20153;-50
2023/06/24 03:51:40;;;;;;;8.10;5.63;;;17.50;99.90;;;;;;5071101;28;20077;-46
2023/06/24 03:54:05;;;;;;;8.73;5.68;;;17.60;99.90;;;;;;5069229;28;20037;-46
2023/06/24 03:56:31;;;;;;;7.22;5.78;;;17.60;99.90;;;;;;5070575;28;20031;-47
2023/06/24 03:58:56;;;;;;;6.57;4.90;;;17.60;99.90;;;;;;5070869;28;20033;-54
2023/06/24 04:01:22;;;;;;;5.20;4.72;;;17.60;99.90;;;;;;5070825;28;20373;-45
2023/06/24 04:03:47;;;;;;;8.00;5.63;;;17.60;99.90;;;;;;5052517;28;20036;-46
2023/06/24 04:06:13;;;;;;;6.70;5.40;;;17.50;99.90;;;;;;5052618;28;20028;-47
2023/06/24 04:08:42;;;;;;;8.10;6.30;;;17.50;99.90;;;;;;5074398;28;20032;-47
2023/06/24 04:11:08;;;;;;;6.50;5.78;;;17.60;99.90;;;;;;5074588;28;20024;-46
2023/06/24 04:13:33;;;;;;;6.35;5.20;;;17.60;99.90;;;;;;5074173;28;20373;-48
2023/06/24 04:15:59;;;;;;;10.60;6.10;;;17.60;99.90;;;;;;5074525;28;20029;-50
2023/06/24 04:18:25;;;;;;;7.15;5.40;;;17.60;99.90;;;;;;5075276;28;20484;-46
2023/06/24 04:20:50;;;;;;;7.25;5.72;;;17.60;99.90;;;;;;5056779;28;20025;-46
2023/06/24 04:23:16;;;;;;;9.40;6.97;;;17.70;99.90;;;;;;5074629;28;20074;-46
2023/06/24 04:25:42;;;;;;;6.43;5.72;;;17.80;99.90;;;;;;5074165;28;20013;-52
2023/06/24 04:28:08;;;;;;;6.95;5.57;;;17.90;99.90;;;;;;5074182;28;20020;-48
2023/06/24 04:30:35;;;;;;;12.05;6.10;;;18.00;99.90;;;;;;5056317;28;20115;-51
2023/06/24 04:33:01;;;;;;;7.07;6.30;;;18.20;99.90;;;;;;5074242;28;20027;-49
2023/06/24 04:35:27;;;;;;;7.57;6.15;;;18.20;99.90;;;;;;5073498;28;20028;-52
2023/06/24 04:37:52;;;;;;;6.00;5.20;;;18.30;99.90;;;;;;5074089;28;20025;-51
2023/06/24 04:40:19;;;;;;;7.75;5.85;;;18.40;99.90;;;;;;5074103;28;20507;-51
2023/06/24 04:42:44;;;;;;;6.35;5.75;;;18.40;99.90;;;;;;5074014;28;20016;-52
2023/06/24 04:45:10;;;;;;;9.50;6.55;;;18.60;99.90;;;;;;5055342;28;20514;-54
2023/06/24 04:47:36;;;;;;;6.90;5.97;;;18.70;99.90;;;;;;5074126;28;20089;-47
2023/06/24 04:50:01;;;;;;;6.93;6.22;;;18.90;99.90;;;;;;5074037;28;20487;-46
2023/06/24 04:52:27;;;;;;;6.32;5.63;;;19.00;99.90;;;;;;5072714;28;20029;-51
2023/06/24 04:54:52;;;;;;;6.05;5.35;;;19.10;99.90;;;;;;5073054;28;20040;-46
2023/06/24 04:57:27;;;;;;;9.90;5.85;;;19.50;99.90;;;;;;5056083;28;20500;-46
2023/06/24 04:59:53;;;;;;;7.13;5.57;;;20.20;99.90;;;;;;5073729;28;20024;-50
2023/06/24 05:02:18;;;;;;;6.32;5.72;;;20.90;99.90;;;;;;5073810;28;20029;-46
2023/06/24 05:04:44;;;;;;;6.93;5.43;;;21.70;99.90;;;;;;5072813;28;20017;-46
2023/06/24 05:07:09;;;;;;;5.10;4.60;;;22.40;99.90;;;;;;5073468;28;20039;-47
2023/06/24 05:09:37;;;;;;;10.02;5.18;;;23.10;99.90;;;;;;5073749;28;20070;-51
2023/06/24 05:12:04;;;;;;;10.30;5.10;;;23.70;99.90;;;;;;5073622;28;20365;-46
2023/06/24 05:14:29;;;;;;;5.30;4.80;;;24.40;99.80;;;;;;5072445;28;20032;-49
2023/06/24 05:16:55;;;;;;;6.53;5.93;;;24.60;98.70;;;;;;5073056;28;20020;-46
2023/06/24 05:19:20;;;;;;;10.32;6.15;;;25.00;98.00;;;;;;5073139;28;20384;-48
2023/06/24 05:21:46;;;;;;;9.88;6.20;;;25.30;97.80;;;;;;5073177;28;20021;-47
2023/06/24 05:24:11;;;;;;;6.25;5.65;;;25.80;97.40;;;;;;5072614;28;20032;-41
2023/06/24 05:26:37;;;;;;;7.63;6.88;;;26.40;96.40;;;;;;5072548;28;20020;-48
2023/06/24 05:29:03;;;;;;;7.13;6.43;;;26.10;96.20;;;;;;5073076;28;20056;-46
2023/06/24 05:31:28;;;;;;;6.88;6.15;;;25.80;96.80;;;;;;5072909;28;20024;-46
2023/06/24 05:33:54;;;;;;;9.15;6.88;;;26.20;96.40;;;;;;5072433;28;20109;-52
2023/06/24 05:36:19;;;;;;;10.77;7.38;;;26.30;96.10;;;;;;5072404;28;20101;-47
2023/06/24 05:38:45;;;;;;;6.93;5.95;;;26.60;95.80;;;;;;5054985;28;20021;-47
2023/06/24 05:41:10;;;;;;;7.90;6.72;;;26.70;95.60;;;;;;5072673;28;20020;-48
2023/06/24 05:43:36;;;;;;;9.20;6.90;;;27.00;95.30;;;;;;5072351;28;20044;-48
2023/06/24 05:46:02;;;;;;;7.40;6.70;;;27.10;95.10;;;;;;5072055;28;20021;-49
2023/06/24 05:48:27;;;;;;;7.07;6.38;;;27.00;95.10;;;;;;5072763;28;20488;-47
2023/06/24 05:50:53;;;;;;;10.18;6.55;;;26.70;95.20;;;;;;5072626;28;20032;-49
2023/06/24 05:53:18;;;;;;;7.68;6.88;;;26.60;95.20;;;;;;5070911;28;20036;-47
2023/06/24 05:55:44;;;;;;;7.57;6.75;;;26.90;95.20;;;;;;5072085;28;20082;-48
2023/06/24 05:58:09;;;;;;;10.35;6.90;;;27.20;95.40;;;;;;5072262;28;20074;-51
2023/06/24 06:00:36;;;;;;;7.10;6.40;;;27.60;95.10;;;;;;5072148;28;20086;-50
2023/06/24 06:03:01;;;;;;;10.05;6.95;;;27.90;94.30;;;;;;5071971;28;20388;-49
2023/06/24 06:05:27;;;;;;;7.57;6.80;;;28.30;94.00;;;;;;5071206;28;20021;-49
2023/06/24 06:07:53;;;;;;;7.53;6.63;;;28.50;93.20;;;;;;5067905;28;20040;-48
2023/06/24 06:10:19;;;;;;;6.80;6.05;;;28.90;92.90;;;;;;5059646;28;20025;-47
2023/06/24 06:12:45;;;;;;;6.75;6.05;;;29.10;92.40;;;;;;5072139;28;20396;-48
2023/06/24 06:15:11;;;;;;;8.45;6.13;;;28.90;92.20;;;;;;5055142;28;20028;-52
2023/06/24 06:17:37;;;;;;;7.60;5.93;;;29.30;92.10;;;;;;5052239;28;20581;-48
2023/06/24 06:20:02;;;;;;;9.13;6.53;;;29.80;91.90;;;;;;5054270;28;20104;-52
2023/06/24 06:22:28;;;;;;;8.98;7.22;;;29.80;91.00;;;;;;5071159;28;20027;-50
2023/06/24 06:24:53;;;;;;;7.32;6.25;;;29.60;91.10;;;;;;5070677;28;20095;-53
2023/06/24 06:27:19;;;;;;;9.35;6.13;;;29.60;91.40;;;;;;5071961;28;20031;-53
2023/06/24 06:29:45;;;;;;;5.60;5.10;;;29.70;91.80;;;;;;5071997;28;20032;-47
2023/06/24 06:32:10;;;;;;;6.40;5.80;;;29.80;91.20;;;;;;5072124;28;20028;-52
2023/06/24 06:34:36;;;;;;;6.20;5.20;;;30.00;91.10;;;;;;5053049;28;20111;-48
2023/06/24 06:37:02;;;;;;;9.13;6.05;;;30.60;90.30;;;;;;5071810;28;20025;-49
2023/06/24 06:39:28;;;;;;;6.05;5.35;;;30.30;90.20;;;;;;5072118;28;20111;-53
2023/06/24 06:41:53;;;;;;;6.65;5.63;;;30.00;90.20;;;;;;5071781;28;20369;-47
2023/06/24 06:44:19;;;;;;;6.05;5.38;;;29.80;90.80;;;;;;5071136;28;20483;-50
2023/06/24 06:46:44;;;;;;;7.15;5.65;;;30.80;90.20;;;;;;5071289;28;20032;-53
2023/06/24 06:49:10;;;;;;;5.93;5.28;;;31.30;89.30;;;;;;5071622;28;20444;-52
2023/06/24 06:51:36;;;;;;;6.28;5.68;;;31.90;88.00;;;;;;5053697;28;20115;-51
2023/06/24 06:54:02;;;;;;;7.05;5.00;;;31.70;86.90;;;;;;5070857;28;20484;-50
2023/06/24 06:56:28;;;;;;;5.90;5.10;;;32.30;85.30;;;;;;5071182;28;20098;-55
2023/06/24 06:58:53;;;;;;;7.07;5.40;;;32.50;83.80;;;;;;5071414;28;20040;-52
2023/06/24 07:01:19;;;;;;;8.20;5.30;;;32.70;83.30;;;;;;5071438;28;20037;-51
2023/06/24 07:03:45;;;;;;;4.90;4.47;;;32.80;82.60;;;;;;5071010;28;20108;-52
2023/06/24 07:06:10;;;;;;;6.32;5.65;;;33.00;81.80;;;;;;5071399;28;20104;-51
2023/06/24 07:08:36;;;;;;;5.40;4.90;;;33.00;80.90;;;;;;5072095;28;20025;-50
2023/06/24 07:11:02;;;;;;;8.77;5.35;;;32.90;81.00;;;;;;5053724;28;20515;-52
2023/06/24 07:13:28;;;;;;;7.10;5.75;;;33.10;80.90;;;;;;5071700;28;20508;-49
2023/06/24 07:15:53;;;;;;;7.35;4.85;;;33.40;80.20;;;;;;5072195;28;20039;-48
2023/06/24 07:18:19;;;;;;;6.28;4.78;;;33.10;79.60;;;;;;5072199;28;20438;-50
2023/06/24 07:20:44;;;;;;;7.72;4.85;;;32.70;80.00;;;;;;5071750;28;20075;-50
2023/06/24 07:23:10;;;;;;;5.82;5.18;;;32.50;80.80;;;;;;5071244;28;20037;-46
2023/06/24 07:25:36;;;;;;;6.53;5.03;;;32.90;80.40;;;;;;5071251;28;20172;-48
2023/06/24 07:28:02;;;;;;;4.50;4.10;;;33.20;79.70;;;;;;5053314;28;20445;-54
2023/06/24 07:30:27;;;;;;;6.38;4.63;;;33.10;79.20;;;;;;5070222;28;20056;-49
2023/06/24 07:32:53;;;;;;;5.63;4.13;;;33.50;78.80;;;;;;5071263;28;20111;-51
2023/06/24 07:35:19;;;;;;;7.07;4.03;;;33.70;78.40;;;;;;5070394;28;20103;-48
2023/06/24 07:37:45;;;;;;;6.55;4.47;;;33.90;76.20;;;;;;5071115;28;20376;-48
2023/06/24 07:40:10;;;;;;;5.10;4.00;;;34.00;75.90;;;;;;5071624;28;20029;-49
2023/06/24 07:42:36;;;;;;;4.28;3.88;;;34.60;75.80;;;;;;5073093;28;20012;-46
2023/06/24 07:45:02;;;;;;;5.63;4.60;;;34.30;75.40;;;;;;5073254;28;20099;-48
2023/06/24 07:47:27;;;;;;;4.57;4.18;;;34.40;75.90;;;;;;5056403;28;20075;-50
2023/06/24 07:49:53;;;;;;;4.63;4.22;;;35.20;74.70;;;;;;5073766;28;20032;-51
2023/06/24 07:52:18;;;;;;;5.22;4.50;;;35.50;72.90;;;;;;5061469;28;20028;-53
2023/06/24 07:54:44;;;;;;;8.00;4.53;;;35.10;73.00;;;;;;5099302;22;20376;-50
2023/06/24 07:57:09;;;;;;;5.30;4.70;;;35.00;73.10;;;;;;5094664;28;20024;-51
2023/06/24 07:59:35;;;;;;;4.32;3.92;;;35.30;72.20;;;;;;5092934;28;20496;-48
2023/06/24 08:02:00;;;;;;;7.10;4.35;;;35.10;71.70;;;;;;5095158;28;20372;-51
2023/06/24 08:04:26;;;;;;;7.63;4.20;;;34.40;72.50;;;;;;5094058;28;20024;-50
2023/06/24 08:06:52;;;;;;;3.92;3.53;;;35.20;71.50;;;;;;5094728;28;20028;-49
2023/06/24 08:09:17;;;;;;;4.78;4.38;;;35.50;70.10;;;;;;5094914;28;20082;-49
2023/06/24 08:11:43;;;;;;;4.43;4.00;;;35.30;69.20;;;;;;5089723;28;20031;-50
2023/06/24 08:14:09;;;;;;;4.70;3.30;;;35.40;69.80;;;;;;5076458;28;20026;-49
2023/06/24 08:16:34;;;;;;;4.38;3.97;;;35.80;69.70;;;;;;5095172;28;20023;-51
2023/06/24 08:19:00;;;;;;;4.95;3.33;;;35.60;69.80;;;;;;5094974;28;20024;-51
2023/06/24 08:21:25;;;;;;;5.75;4.38;;;35.30;69.50;;;;;;5095154;28;20032;-48
2023/06/24 08:23:51;;;;;;;4.07;3.78;;;34.40;70.20;;;;;;5094215;28;20020;-48
2023/06/24 08:26:17;;;;;;;4.30;3.85;;;33.90;71.50;;;;;;5094293;28;20043;-49
2023/06/24 08:28:42;;;;;;;4.70;4.00;;;33.70;71.90;;;;;;5075928;28;20032;-49
2023/06/24 08:31:08;;;;;;;4.80;4.38;;;33.60;71.70;;;;;;5095241;28;20024;-47
2023/06/24 08:33:33;;;;;;;6.47;4.65;;;33.20;72.60;;;;;;5093959;28;20020;-52
2023/06/24 08:35:59;;;;;;;5.93;5.18;;;33.10;73.30;;;;;;5093997;28;20016;-48
2023/06/24 08:38:25;;;;;;;5.03;4.50;;;32.80;73.50;;;;;;5094165;28;20028;-50
2023/06/24 08:40:51;;;;;;;6.05;4.97;;;32.70;74.00;;;;;;5094485;28;20020;-50
2023/06/24 08:43:16;;;;;;;4.40;4.00;;;32.50;75.00;;;;;;5075543;28;20099;-50
2023/06/24 08:45:42;;;;;;;5.80;4.65;;;32.30;75.00;;;;;;5094167;28;20187;-47
2023/06/24 08:48:08;;;;;;;5.88;4.30;;;32.30;75.90;;;;;;5094144;28;20021;-51
2023/06/24 08:50:43;;;;;;;4.10;3.78;;;32.10;75.40;;;;;;5093911;28;20021;-52
2023/06/24 08:53:09;;;;;;;7.65;4.05;;;32.20;75.50;;;;;;5093340;28;20032;-54
2023/06/24 08:55:42;;;;;;;7.30;4.20;;;32.10;74.40;;;;;;5093529;28;20036;-53
2023/06/24 08:58:08;;;;;;;5.68;4.38;;;32.30;74.90;;;;;;5092509;28;20024;-50
2023/06/24 09:00:34;;;;;;;4.20;3.80;;;32.60;74.00;;;;;;5093930;28;20512;-53
2023/06/24 09:03:00;;;;;;;5.10;3.45;;;32.70;73.70;;;;;;5093820;28;20020;-53
2023/06/24 09:05:25;;;;;;;4.93;4.43;;;32.80;71.60;;;;;;5092909;28;20027;-49
2023/06/24 09:07:51;;;;;;;12.45;11.15;;;32.70;72.00;;;;;;5093963;28;20099;-52
2023/06/24 09:10:30;;;;;;;5.25;4.43;;;32.70;72.10;;;;;;5092532;28;20102;-49
2023/06/24 09:12:56;;;;;;;20.38;15.82;;;32.70;72.60;;;;;;5094550;28;20042;-47
2023/06/24 09:15:21;;;;;;;5.32;4.03;;;32.70;72.00;;;;;;5093919;28;20024;-46
2023/06/24 09:17:47;;;;;;;8.63;4.15;;;32.20;72.70;;;;;;5094171;28;20032;-48
2023/06/24 09:20:12;;;;;;;6.35;3.85;;;32.10;73.50;;;;;;5091451;28;20387;-48
2023/06/24 09:22:41;;;;;;;4.10;3.70;;;31.70;74.10;;;;;;5086483;28;20016;-48
2023/06/24 09:25:07;;;;;;;6.00;4.10;;;31.50;75.30;;;;;;5093327;28;20024;-49
2023/06/24 09:27:33;;;;;;;4.75;4.13;;;31.50;74.80;;;;;;5093521;28;20020;-52
2023/06/24 09:29:59;;;;;;;7.57;4.35;;;31.50;73.60;;;;;;5089374;28;20025;-49
2023/06/24 09:32:34;;;;;;;7.80;5.72;;;31.40;72.90;;;;;;5071795;28;20036;-49
2023/06/24 09:35:03;;;;;;;6.15;5.55;;;31.20;72.80;;;;;;5077136;28;20070;-55
2023/06/24 09:37:30;;;;;;;8.13;5.32;;;31.30;73.50;;;;;;5081691;28;20028;-48
2023/06/24 09:39:56;;;;;;;6.78;4.32;;;30.90;73.00;;;;;;5091928;28;20016;-50
2023/06/24 09:42:25;;;;;;;5.65;5.07;;;30.70;73.60;;;;;;5090841;28;20498;-54
2023/06/24 09:44:54;;;;;;;6.45;5.07;;;30.80;73.80;;;;;;5086871;28;20097;-51
2023/06/24 09:47:20;;;;;;;5.25;3.85;;;30.60;73.90;;;;;;5093739;28;20093;-47
2023/06/24 09:49:45;;;;;;;8.38;4.35;;;30.40;75.40;;;;;;5094180;28;20024;-49
2023/06/24 09:52:15;;;;;;;4.55;3.53;;;30.60;74.90;;;;;;5078741;28;20101;-48
2023/06/24 09:54:43;;;;;;;7.47;5.47;;;30.80;76.10;;;;;;5074180;28;20078;-49
2023/06/24 09:57:09;;;;;;;6.97;4.40;;;30.80;74.00;;;;;;5073640;28;20036;-46
2023/06/24 09:59:35;;;;;;;6.32;4.65;;;30.60;73.90;;;;;;5077100;28;20040;-46
2023/06/24 10:02:03;;;;;;;6.80;4.93;;;30.60;73.80;;;;;;5090374;28;20020;-49
2023/06/24 10:04:30;;;;;;;4.30;3.90;;;30.20;73.60;;;;;;5087257;28;20040;-49
2023/06/24 10:06:55;;;;;;;7.75;5.53;;;30.10;74.50;;;;;;5088673;28;20070;-48
2023/06/24 10:09:21;;;;;;;5.47;4.07;;;30.00;74.30;;;;;;5087514;28;20492;-48
2023/06/24 10:11:47;;;;;;;6.18;4.03;;;29.90;75.10;;;;;;5084835;28;20492;-47
2023/06/24 10:14:14;;;;;;;10.00;3.95;;;29.90;75.60;;;;;;5093380;28;20028;-50
2023/06/24 10:16:41;;;;;;;4.35;3.13;;;29.60;76.00;;;;;;5093571;28;20376;-46
2023/06/24 10:19:06;;;;;;;3.78;3.38;;;29.60;76.00;;;;;;5084904;28;20025;-46
2023/06/24 10:21:56;;;;;;;5.75;4.38;;;29.60;74.20;;;;;;5074109;28;20024;-46
2023/06/24 10:24:37;;;;;;;6.32;3.17;;;29.50;74.50;;;;;;5090748;28;20441;-48
2023/06/24 10:27:08;;;;;;;7.05;5.22;;;29.60;75.70;;;;;;5082874;28;20016;-46
2023/06/24 10:29:55;;;;;;;7.68;4.85;;;29.50;74.50;;;;;;5088674;28;20033;-49
2023/06/24 10:32:23;;;;;;;4.47;3.65;;;29.40;75.30;;;;;;5085125;28;20542;-47
2023/06/24 10:34:57;;;;;;;3.97;3.38;;;29.40;76.20;;;;;;5088240;28;20071;-47
2023/06/24 10:37:26;;;;;;;;;;;29.00;76.00;;;;;;5089134;28;20426;-46
2023/06/24 10:39:59;;;;;;;4.32;3.33;;;28.90;75.70;;;;;;5088177;28;19912;-45
2023/06/24 10:42:28;;;;;;;3.55;3.25;;;28.90;76.20;;;;;;5074120;28;20028;-47
2023/06/24 10:44:55;;;;;;;7.68;4.07;;;29.00;74.10;;;;;;5090018;28;20431;-50
2023/06/24 10:47:27;;;;;;;4.43;4.03;;;29.00;75.40;;;;;;5072799;28;20051;-45
2023/06/24 10:49:53;;;;;;;3.65;3.25;;;28.70;76.10;;;;;;5073697;28;20029;-47
2023/06/24 10:52:22;;;;;;;6.35;3.65;;;28.60;77.50;;;;;;5073749;28;20028;-47
2023/06/24 10:54:50;;;;;;;3.65;3.35;;;28.50;77.20;;;;;;5077361;28;20032;-51
2023/06/24 10:57:21;;;;;;;5.95;3.85;;;28.30;76.40;;;;;;5073385;28;20059;-48
2023/06/24 10:59:48;;;;;;;5.28;3.70;;;28.40;76.70;;;;;;5055046;28;20392;-48
2023/06/24 11:02:15;;;;;;;6.07;4.00;;;28.30;76.70;;;;;;5083271;28;20024;-46
2023/06/24 11:04:48;;;;;;;5.70;3.95;;;28.40;76.30;;;;;;5091305;28;20028;-50
2023/06/24 11:07:14;;;;;;;3.97;3.30;;;28.30;75.50;;;;;;5074307;28;20029;-47
2023/06/24 11:09:47;;;;;;;5.40;3.78;;;28.20;77.10;;;;;;5073475;28;20103;-47
2023/06/24 11:12:13;;;;;;;4.60;4.20;;;28.20;76.70;;;;;;5071979;28;20033;-52
2023/06/24 11:14:39;;;;;;;7.63;4.03;;;28.20;76.50;;;;;;5071703;28;20040;-44
2023/06/24 11:17:06;;;;;;;4.65;3.60;;;28.10;76.20;;;;;;5092510;28;20035;-47
2023/06/24 11:19:32;;;;;;;4.45;3.80;;;28.10;77.00;;;;;;5081273;28;20036;-48
2023/06/24 11:22:00;;;;;;;10.43;4.03;;;28.10;78.10;;;;;;5093711;28;20075;-52
2023/06/24 11:24:27;;;;;;;6.15;3.90;;;28.10;78.30;;;;;;5092646;28;20016;-47
2023/06/24 11:26:52;;;;;;;4.03;3.63;;;28.20;78.20;;;;;;5092148;28;20608;-48
2023/06/24 11:29:18;;;;;;;37.20;24.77;;;28.30;79.60;;;;;;5094228;28;20028;-49
2023/06/24 11:31:45;;;;;;;8.43;5.88;;;28.40;79.80;;;;;;5093717;28;20124;-52
2023/06/24 11:34:10;;;;;;;7.60;4.60;;;28.30;77.70;;;;;;5093100;28;20028;-52
2023/06/24 11:36:36;;;;;;;4.75;4.05;;;28.30;76.90;;;;;;5093270;28;20032;-51
2023/06/24 11:39:03;;;;;;;3.90;3.50;;;28.20;78.00;;;;;;5094325;28;20024;-54
2023/06/24 11:41:28;;;;;;;6.40;4.38;;;28.00;77.40;;;;;;5093513;28;20023;-48
2023/06/24 11:43:56;;;;;;;4.18;3.75;;;27.90;77.60;;;;;;5092681;28;20021;-51
2023/06/24 11:46:36;;;;;;;6.15;4.15;;;27.90;78.30;;;;;;5091916;28;20066;-48
2023/06/24 11:49:08;;;;;;;4.82;4.32;;;27.90;79.60;;;;;;5075284;28;20048;-49
2023/06/24 11:51:36;;;;;;;5.03;4.53;;;27.80;79.00;;;;;;5076666;28;20031;-47
2023/06/24 11:54:05;;;;;;;8.45;4.70;;;27.80;77.80;;;;;;5089953;28;20063;-47
2023/06/24 11:56:39;;;;;;;5.35;3.65;;;27.70;79.00;;;;;;5077086;28;20062;-48
2023/06/24 11:59:05;;;;;;;8.05;4.75;;;27.60;79.80;;;;;;5071706;28;20067;-49
2023/06/24 12:01:37;;;;;;;3.67;3.20;;;27.40;80.00;;;;;;5073085;28;20104;-51
2023/06/24 12:04:13;;;;;;;3.92;3.50;;;27.30;80.60;;;;;;5071265;28;20020;-50
2023/06/24 12:06:43;;;;;;;13.10;4.07;;;27.30;80.10;;;;;;5071653;28;20103;-48
2023/06/24 12:09:09;;;;;;;4.65;4.18;;;27.40;79.70;;;;;;5053776;28;20064;-49
2023/06/24 12:11:35;;;;;;;3.53;3.22;;;27.40;79.40;;;;;;5054686;28;20028;-50
2023/06/24 12:14:01;;;;;;;4.15;3.75;;;27.30;81.00;;;;;;5071123;28;20025;-48
2023/06/24 12:16:26;;;;;;;5.75;3.97;;;27.40;80.20;;;;;;5052765;28;20032;-49
2023/06/24 12:18:52;;;;;;;4.30;3.70;;;27.40;80.00;;;;;;5072016;28;20032;-47
2023/06/24 12:21:18;;;;;;;4.07;3.70;;;27.40;77.80;;;;;;5084464;28;20031;-48
2023/06/24 12:23:44;;;;;;;6.28;3.97;;;27.30;78.60;;;;;;5090822;28;20024;-46
2023/06/24 12:26:10;;;;;;;5.45;3.25;;;27.30;80.20;;;;;;5090908;28;20024;-51
2023/06/24 12:28:35;;;;;;;4.45;3.88;;;27.20;78.60;;;;;;5091088;28;20519;-48
2023/06/24 12:31:01;;;;;;;4.20;3.80;;;27.10;78.80;;;;;;5084495;28;20035;-46
2023/06/24 12:33:26;;;;;;;6.20;4.50;;;27.00;78.90;;;;;;5073685;28;20036;-50
2023/06/24 12:35:52;;;;;;;7.50;3.58;;;26.90;80.70;;;;;;5073959;28;20078;-49
2023/06/24 12:38:17;;;;;;;5.25;4.18;;;26.80;79.20;;;;;;5075257;28;20492;-49
2023/06/24 12:40:43;;;;;;;5.50;4.45;;;26.80;78.80;;;;;;5072917;28;20032;-47
2023/06/24 12:43:08;;;;;;;8.15;4.10;;;26.80;78.90;;;;;;5075161;28;20027;-50
2023/06/24 12:45:34;;;;;;;4.43;3.67;;;26.80;79.90;;;;;;5073212;28;20067;-50